sensor_id;sensor_type;location;lat;lon;timestamp;temperature;humidity
36214;DHT22;37652;50.400;30.628;2023-03-23T00:00:55;8.60;76.30
36214;DHT22;37652;50.400;30.628;2023-03-23T00:02:56;8.40;76.50
36214;DHT22;37652;50.400;30.628;2023-03-23T00:04:56;7.40;76.20
36214;DHT22;37652;50.400;30.628;2023-03-23T00:09:01;8.10;76.50
36214;DHT22;37652;50.400;30.628;2023-03-23T00:11:04;7.90;76.50
36214;DHT22;37652;50.400;30.628;2023-03-23T00:13:05;7.80;76.50
36214;DHT22;37652;50.400;30.628;2023-03-23T00:15:08;7.70;76.40
36214;DHT22;37652;50.400;30.628;2023-03-23T00:17:09;8.00;76.50
36214;DHT22;37652;50.400;30.628;2023-03-23T00:19:12;7.80;74.30
36214;DHT22;37652;50.400;30.628;2023-03-23T00:21:15;7.80;77.40
36214;DHT22;37652;50.400;30.628;2023-03-23T00:23:17;8.00;78.30
36214;DHT22;37652;50.400;30.628;2023-03-23T00:25:19;7.80;77.40
36214;DHT22;37652;50.400;30.628;2023-03-23T00:27:20;7.90;78.70
36214;DHT22;37652;50.400;30.628;2023-03-23T00:29:22;8.00;83.80
36214;DHT22;37652;50.400;30.628;2023-03-23T00:31:23;8.20;78.20
36214;DHT22;37652;50.400;30.628;2023-03-23T00:33:26;8.00;77.80
36214;DHT22;37652;50.400;30.628;2023-03-23T00:35:27;7.80;78.10
36214;DHT22;37652;50.400;30.628;2023-03-23T00:37:28;7.60;75.70
36214;DHT22;37652;50.400;30.628;2023-03-23T00:39:29;7.40;79.00
36214;DHT22;37652;50.400;30.628;2023-03-23T00:41:31;7.50;79.80
36214;DHT22;37652;50.400;30.628;2023-03-23T00:43:33;8.10;79.90
36214;DHT22;37652;50.400;30.628;2023-03-23T00:45:37;7.10;80.30
36214;DHT22;37652;50.400;30.628;2023-03-23T00:47:37;7.20;78.00
36214;DHT22;37652;50.400;30.628;2023-03-23T00:49:38;8.00;76.70
36214;DHT22;37652;50.400;30.628;2023-03-23T00:51:40;7.60;81.00
36214;DHT22;37652;50.400;30.628;2023-03-23T00:55:43;7.40;76.60
36214;DHT22;37652;50.400;30.628;2023-03-23T00:57:44;7.50;79.70
36214;DHT22;37652;50.400;30.628;2023-03-23T00:59:45;7.80;80.00
36214;DHT22;37652;50.400;30.628;2023-03-23T01:01:47;7.50;77.00
36214;DHT22;37652;50.400;30.628;2023-03-23T01:03:48;7.50;79.30
36214;DHT22;37652;50.400;30.628;2023-03-23T01:05:49;7.60;79.20
36214;DHT22;37652;50.400;30.628;2023-03-23T01:07:52;7.80;79.40
36214;DHT22;37652;50.400;30.628;2023-03-23T01:09:52;7.30;77.50
36214;DHT22;37652;50.400;30.628;2023-03-23T01:11:54;7.30;79.30
36214;DHT22;37652;50.400;30.628;2023-03-23T01:13:56;6.90;79.80
36214;DHT22;37652;50.400;30.628;2023-03-23T01:17:58;7.50;80.90
36214;DHT22;37652;50.400;30.628;2023-03-23T01:19:58;7.20;80.60
36214;DHT22;37652;50.400;30.628;2023-03-23T01:21:59;6.70;80.90
36214;DHT22;37652;50.400;30.628;2023-03-23T01:24:00;7.10;81.40
36214;DHT22;37652;50.400;30.628;2023-03-23T01:26:09;7.50;80.60
36214;DHT22;37652;50.400;30.628;2023-03-23T01:28:11;7.00;78.80
36214;DHT22;37652;50.400;30.628;2023-03-23T01:30:12;6.60;80.00
36214;DHT22;37652;50.400;30.628;2023-03-23T01:32:13;6.90;78.50
36214;DHT22;37652;50.400;30.628;2023-03-23T01:34:14;6.60;80.40
36214;DHT22;37652;50.400;30.628;2023-03-23T01:36:17;6.40;81.40
36214;DHT22;37652;50.400;30.628;2023-03-23T01:38:17;7.20;85.20
36214;DHT22;37652;50.400;30.628;2023-03-23T01:40:18;7.10;91.60
36214;DHT22;37652;50.400;30.628;2023-03-23T01:42:22;6.40;81.50
36214;DHT22;37652;50.400;30.628;2023-03-23T01:46:29;6.80;79.20
36214;DHT22;37652;50.400;30.628;2023-03-23T01:48:32;6.80;79.60
36214;DHT22;37652;50.400;30.628;2023-03-23T01:52:58;7.00;81.40
36214;DHT22;37652;50.400;30.628;2023-03-23T01:55:00;6.90;78.80
36214;DHT22;37652;50.400;30.628;2023-03-23T01:57:07;6.80;79.20
36214;DHT22;37652;50.400;30.628;2023-03-23T01:59:11;7.10;81.20
36214;DHT22;37652;50.400;30.628;2023-03-23T02:01:14;7.00;79.10
36214;DHT22;37652;50.400;30.628;2023-03-23T02:03:15;7.00;79.00
36214;DHT22;37652;50.400;30.628;2023-03-23T02:05:30;7.00;79.00
36214;DHT22;37652;50.400;30.628;2023-03-23T02:07:33;6.90;80.10
36214;DHT22;37652;50.400;30.628;2023-03-23T02:09:34;6.70;80.40
36214;DHT22;37652;50.400;30.628;2023-03-23T02:11:35;7.20;81.00
36214;DHT22;37652;50.400;30.628;2023-03-23T02:13:36;6.70;84.60
36214;DHT22;37652;50.400;30.628;2023-03-23T02:21:07;6.60;81.10
36214;DHT22;37652;50.400;30.628;2023-03-23T02:23:20;6.70;79.20
36214;DHT22;37652;50.400;30.628;2023-03-23T02:34:58;6.80;81.60
36214;DHT22;37652;50.400;30.628;2023-03-23T02:37:03;6.40;81.70
36214;DHT22;37652;50.400;30.628;2023-03-23T02:39:13;6.90;81.80
36214;DHT22;37652;50.400;30.628;2023-03-23T02:41:20;6.70;80.50
36214;DHT22;37652;50.400;30.628;2023-03-23T02:43:24;6.60;79.80
36214;DHT22;37652;50.400;30.628;2023-03-23T02:45:28;7.10;81.30
36214;DHT22;37652;50.400;30.628;2023-03-23T02:47:31;6.20;81.30
36214;DHT22;37652;50.400;30.628;2023-03-23T02:49:34;6.40;81.90
36214;DHT22;37652;50.400;30.628;2023-03-23T02:51:37;6.50;79.90
36214;DHT22;37652;50.400;30.628;2023-03-23T02:53:41;6.50;80.40
36214;DHT22;37652;50.400;30.628;2023-03-23T02:55:43;6.20;81.40
36214;DHT22;37652;50.400;30.628;2023-03-23T02:57:45;7.20;81.90
36214;DHT22;37652;50.400;30.628;2023-03-23T02:59:46;6.30;81.50
36214;DHT22;37652;50.400;30.628;2023-03-23T03:02:01;6.00;82.00
36214;DHT22;37652;50.400;30.628;2023-03-23T03:04:10;6.90;82.50
36214;DHT22;37652;50.400;30.628;2023-03-23T03:06:45;5.90;87.10
36214;DHT22;37652;50.400;30.628;2023-03-23T03:11:19;6.50;80.60
36214;DHT22;37652;50.400;30.628;2023-03-23T03:13:52;6.50;80.50
36214;DHT22;37652;50.400;30.628;2023-03-23T03:15:59;6.50;80.40
36214;DHT22;37652;50.400;30.628;2023-03-23T03:18:13;6.60;80.60
36214;DHT22;37652;50.400;30.628;2023-03-23T03:20:15;6.60;80.50
36214;DHT22;37652;50.400;30.628;2023-03-23T03:22:18;6.70;80.70
36214;DHT22;37652;50.400;30.628;2023-03-23T03:24:22;6.60;80.40
36214;DHT22;37652;50.400;30.628;2023-03-23T03:26:26;6.60;80.20
36214;DHT22;37652;50.400;30.628;2023-03-23T03:28:27;6.60;80.60
36214;DHT22;37652;50.400;30.628;2023-03-23T03:30:30;6.60;80.60
36214;DHT22;37652;50.400;30.628;2023-03-23T03:32:38;6.80;81.80
36214;DHT22;37652;50.400;30.628;2023-03-23T03:34:40;6.30;81.90
36214;DHT22;37652;50.400;30.628;2023-03-23T03:36:41;6.30;82.30
36214;DHT22;37652;50.400;30.628;2023-03-23T03:38:48;6.40;82.30
36214;DHT22;37652;50.400;30.628;2023-03-23T03:40:50;6.30;82.00
36214;DHT22;37652;50.400;30.628;2023-03-23T03:42:51;6.90;83.50
36214;DHT22;37652;50.400;30.628;2023-03-23T03:44:51;6.90;82.60
36214;DHT22;37652;50.400;30.628;2023-03-23T03:46:52;7.10;83.00
36214;DHT22;37652;50.400;30.628;2023-03-23T03:50:54;6.70;81.70
36214;DHT22;37652;50.400;30.628;2023-03-23T03:54:58;6.60;80.20
36214;DHT22;37652;50.400;30.628;2023-03-23T04:01:01;6.10;82.40
36214;DHT22;37652;50.400;30.628;2023-03-23T04:03:02;6.00;86.50
36214;DHT22;37652;50.400;30.628;2023-03-23T04:05:04;6.70;83.20
36214;DHT22;37652;50.400;30.628;2023-03-23T04:09:06;6.30;82.80
36214;DHT22;37652;50.400;30.628;2023-03-23T04:11:12;6.60;81.20
36214;DHT22;37652;50.400;30.628;2023-03-23T04:13:14;6.90;82.80
36214;DHT22;37652;50.400;30.628;2023-03-23T04:15:15;6.90;84.10
36214;DHT22;37652;50.400;30.628;2023-03-23T04:17:16;6.20;82.10
36214;DHT22;37652;50.400;30.628;2023-03-23T04:19:18;7.10;83.40
36214;DHT22;37652;50.400;30.628;2023-03-23T04:21:18;6.60;83.00
36214;DHT22;37652;50.400;30.628;2023-03-23T04:23:20;6.70;80.50
36214;DHT22;37652;50.400;30.628;2023-03-23T04:25:22;6.20;82.20
36214;DHT22;37652;50.400;30.628;2023-03-23T04:29:25;7.20;86.30
36214;DHT22;37652;50.400;30.628;2023-03-23T04:31:25;6.30;81.70
36214;DHT22;37652;50.400;30.628;2023-03-23T04:33:28;6.70;79.70
36214;DHT22;37652;50.400;30.628;2023-03-23T04:35:30;6.90;86.80
36214;DHT22;37652;50.400;30.628;2023-03-23T04:37:31;7.00;81.00
36214;DHT22;37652;50.400;30.628;2023-03-23T04:39:34;7.10;80.70
36214;DHT22;37652;50.400;30.628;2023-03-23T04:41:39;6.90;79.90
36214;DHT22;37652;50.400;30.628;2023-03-23T04:43:40;7.00;81.00
36214;DHT22;37652;50.400;30.628;2023-03-23T04:45:42;7.50;80.90
36214;DHT22;37652;50.400;30.628;2023-03-23T04:47:45;7.30;81.10
36214;DHT22;37652;50.400;30.628;2023-03-23T04:49:53;7.20;81.40
36214;DHT22;37652;50.400;30.628;2023-03-23T04:51:53;6.90;85.20
36214;DHT22;37652;50.400;30.628;2023-03-23T04:53:54;6.90;80.60
36214;DHT22;37652;50.400;30.628;2023-03-23T04:55:55;6.50;81.00
36214;DHT22;37652;50.400;30.628;2023-03-23T04:57:57;6.30;90.20
36214;DHT22;37652;50.400;30.628;2023-03-23T05:00:02;7.30;81.20
36214;DHT22;37652;50.400;30.628;2023-03-23T05:02:12;7.00;79.60
36214;DHT22;37652;50.400;30.628;2023-03-23T05:04:16;6.90;80.80
36214;DHT22;37652;50.400;30.628;2023-03-23T05:06:17;7.60;81.50
36214;DHT22;37652;50.400;30.628;2023-03-23T05:08:19;7.20;79.90
36214;DHT22;37652;50.400;30.628;2023-03-23T05:14:22;7.10;83.50
36214;DHT22;37652;50.400;30.628;2023-03-23T05:16:23;7.10;83.70
36214;DHT22;37652;50.400;30.628;2023-03-23T05:20:26;7.30;84.60
36214;DHT22;37652;50.400;30.628;2023-03-23T05:22:28;7.40;79.20
36214;DHT22;37652;50.400;30.628;2023-03-23T05:24:32;7.80;80.40
36214;DHT22;37652;50.400;30.628;2023-03-23T05:26:33;7.40;79.90
36214;DHT22;37652;50.400;30.628;2023-03-23T05:30:37;7.00;79.00
36214;DHT22;37652;50.400;30.628;2023-03-23T05:32:38;7.30;79.50
36214;DHT22;37652;50.400;30.628;2023-03-23T05:34:40;7.60;77.60
36214;DHT22;37652;50.400;30.628;2023-03-23T05:36:40;7.70;84.50
36214;DHT22;37652;50.400;30.628;2023-03-23T05:38:42;8.10;79.00
36214;DHT22;37652;50.400;30.628;2023-03-23T05:40:45;7.60;77.50
36214;DHT22;37652;50.400;30.628;2023-03-23T05:42:47;7.30;78.00
36214;DHT22;37652;50.400;30.628;2023-03-23T05:46:49;7.70;77.00
36214;DHT22;37652;50.400;30.628;2023-03-23T05:50:51;7.70;76.90
36214;DHT22;37652;50.400;30.628;2023-03-23T05:52:52;7.80;77.40
36214;DHT22;37652;50.400;30.628;2023-03-23T05:54:53;7.90;77.10
36214;DHT22;37652;50.400;30.628;2023-03-23T05:56:53;7.90;76.90
36214;DHT22;37652;50.400;30.628;2023-03-23T05:58:54;8.00;76.60
36214;DHT22;37652;50.400;30.628;2023-03-23T06:00:55;8.20;77.10
36214;DHT22;37652;50.400;30.628;2023-03-23T06:02:56;8.10;76.10
36214;DHT22;37652;50.400;30.628;2023-03-23T06:07:01;8.10;75.50
36214;DHT22;37652;50.400;30.628;2023-03-23T06:09:03;8.30;77.10
36214;DHT22;37652;50.400;30.628;2023-03-23T06:11:04;8.20;75.90
36214;DHT22;37652;50.400;30.628;2023-03-23T06:13:04;8.20;75.80
36214;DHT22;37652;50.400;30.628;2023-03-23T06:15:06;8.90;76.50
36214;DHT22;37652;50.400;30.628;2023-03-23T06:17:07;8.30;75.70
36214;DHT22;37652;50.400;30.628;2023-03-23T06:19:08;8.30;75.40
36214;DHT22;37652;50.400;30.628;2023-03-23T06:21:10;7.90;75.90
36214;DHT22;37652;50.400;30.628;2023-03-23T06:23:11;8.30;75.80
36214;DHT22;37652;50.400;30.628;2023-03-23T06:25:12;8.30;75.70
36214;DHT22;37652;50.400;30.628;2023-03-23T06:27:13;8.40;76.10
36214;DHT22;37652;50.400;30.628;2023-03-23T06:29:14;8.30;75.30
36214;DHT22;37652;50.400;30.628;2023-03-23T06:31:15;8.40;75.20
36214;DHT22;37652;50.400;30.628;2023-03-23T06:33:17;8.50;75.00
36214;DHT22;37652;50.400;30.628;2023-03-23T06:35:18;8.70;74.90
36214;DHT22;37652;50.400;30.628;2023-03-23T06:37:18;8.80;74.60
36214;DHT22;37652;50.400;30.628;2023-03-23T06:39:19;9.00;73.20
36214;DHT22;37652;50.400;30.628;2023-03-23T06:41:20;9.00;74.30
36214;DHT22;37652;50.400;30.628;2023-03-23T06:43:22;8.70;74.10
36214;DHT22;37652;50.400;30.628;2023-03-23T06:45:23;8.70;74.40
36214;DHT22;37652;50.400;30.628;2023-03-23T06:47:24;8.70;75.10
36214;DHT22;37652;50.400;30.628;2023-03-23T06:49:25;9.20;73.00
36214;DHT22;37652;50.400;30.628;2023-03-23T06:51:25;9.40;81.00
36214;DHT22;37652;50.400;30.628;2023-03-23T06:53:26;9.10;75.10
36214;DHT22;37652;50.400;30.628;2023-03-23T06:55:27;8.80;74.90
36214;DHT22;37652;50.400;30.628;2023-03-23T06:57:28;9.40;74.90
36214;DHT22;37652;50.400;30.628;2023-03-23T06:59:28;8.70;74.70
36214;DHT22;37652;50.400;30.628;2023-03-23T07:03:30;9.10;74.40
36214;DHT22;37652;50.400;30.628;2023-03-23T07:05:33;9.50;74.50
36214;DHT22;37652;50.400;30.628;2023-03-23T07:07:35;9.60;74.90
36214;DHT22;37652;50.400;30.628;2023-03-23T07:11:37;9.40;74.20
36214;DHT22;37652;50.400;30.628;2023-03-23T07:13:38;9.20;73.90
36214;DHT22;37652;50.400;30.628;2023-03-23T07:15:39;9.60;72.90
36214;DHT22;37652;50.400;30.628;2023-03-23T07:17:40;10.00;73.80
36214;DHT22;37652;50.400;30.628;2023-03-23T07:19:41;9.60;73.30
36214;DHT22;37652;50.400;30.628;2023-03-23T07:21:42;10.00;71.50
36214;DHT22;37652;50.400;30.628;2023-03-23T07:23:42;10.00;71.80
36214;DHT22;37652;50.400;30.628;2023-03-23T07:25:44;10.80;72.10
36214;DHT22;37652;50.400;30.628;2023-03-23T07:27:46;10.70;71.50
36214;DHT22;37652;50.400;30.628;2023-03-23T07:29:47;10.70;70.50
36214;DHT22;37652;50.400;30.628;2023-03-23T07:31:47;10.70;70.00
36214;DHT22;37652;50.400;30.628;2023-03-23T07:33:48;10.80;69.90
36214;DHT22;37652;50.400;30.628;2023-03-23T07:35:49;10.80;69.80
36214;DHT22;37652;50.400;30.628;2023-03-23T07:37:50;10.80;69.50
36214;DHT22;37652;50.400;30.628;2023-03-23T07:39:52;10.70;69.30
36214;DHT22;37652;50.400;30.628;2023-03-23T07:41:52;10.70;69.80
36214;DHT22;37652;50.400;30.628;2023-03-23T07:43:53;10.70;69.60
36214;DHT22;37652;50.400;30.628;2023-03-23T07:45:54;10.70;69.60
36214;DHT22;37652;50.400;30.628;2023-03-23T07:49:56;11.00;68.30
36214;DHT22;37652;50.400;30.628;2023-03-23T07:51:57;11.20;69.30
36214;DHT22;37652;50.400;30.628;2023-03-23T07:53:58;11.30;67.90
36214;DHT22;37652;50.400;30.628;2023-03-23T07:55:59;11.40;67.80
36214;DHT22;37652;50.400;30.628;2023-03-23T07:58:00;11.50;67.20
36214;DHT22;37652;50.400;30.628;2023-03-23T08:00:02;11.90;67.70
36214;DHT22;37652;50.400;30.628;2023-03-23T08:04:20;11.90;64.90
36214;DHT22;37652;50.400;30.628;2023-03-23T08:06:21;12.10;65.40
36214;DHT22;37652;50.400;30.628;2023-03-23T08:08:21;12.30;65.10
36214;DHT22;37652;50.400;30.628;2023-03-23T08:10:23;12.50;64.30
36214;DHT22;37652;50.400;30.628;2023-03-23T08:12:25;12.80;63.50
36214;DHT22;37652;50.400;30.628;2023-03-23T08:14:25;13.00;63.10
36214;DHT22;37652;50.400;30.628;2023-03-23T08:16:28;13.20;62.50
36214;DHT22;37652;50.400;30.628;2023-03-23T08:20:29;13.20;61.40
36214;DHT22;37652;50.400;30.628;2023-03-23T08:22:30;13.30;61.60
36214;DHT22;37652;50.400;30.628;2023-03-23T08:24:32;13.40;61.60
36214;DHT22;37652;50.400;30.628;2023-03-23T08:26:33;13.80;62.00
36214;DHT22;37652;50.400;30.628;2023-03-23T08:28:34;14.00;61.30
36214;DHT22;37652;50.400;30.628;2023-03-23T08:30:37;14.10;60.50
36214;DHT22;37652;50.400;30.628;2023-03-23T08:32:39;14.20;60.00
36214;DHT22;37652;50.400;30.628;2023-03-23T08:34:40;14.00;61.00
36214;DHT22;37652;50.400;30.628;2023-03-23T08:36:42;14.30;59.20
36214;DHT22;37652;50.400;30.628;2023-03-23T08:38:44;14.00;59.80
36214;DHT22;37652;50.400;30.628;2023-03-23T08:40:46;14.00;60.60
36214;DHT22;37652;50.400;30.628;2023-03-23T08:42:48;14.00;60.60
36214;DHT22;37652;50.400;30.628;2023-03-23T08:44:49;13.90;59.40
36214;DHT22;37652;50.400;30.628;2023-03-23T08:46:50;13.90;59.90
36214;DHT22;37652;50.400;30.628;2023-03-23T08:48:55;14.00;59.60
36214;DHT22;37652;50.400;30.628;2023-03-23T08:52:56;13.80;60.70
36214;DHT22;37652;50.400;30.628;2023-03-23T08:54:57;14.00;60.60
36214;DHT22;37652;50.400;30.628;2023-03-23T08:57:01;14.30;59.40
36214;DHT22;37652;50.400;30.628;2023-03-23T08:59:03;14.60;58.70
36214;DHT22;37652;50.400;30.628;2023-03-23T09:01:04;14.70;58.20
36214;DHT22;37652;50.400;30.628;2023-03-23T09:03:06;15.10;57.30
36214;DHT22;37652;50.400;30.628;2023-03-23T09:05:08;14.80;57.40
36214;DHT22;37652;50.400;30.628;2023-03-23T09:07:11;14.90;57.60
36214;DHT22;37652;50.400;30.628;2023-03-23T09:11:15;15.00;56.70
36214;DHT22;37652;50.400;30.628;2023-03-23T09:13:16;15.60;56.20
36214;DHT22;37652;50.400;30.628;2023-03-23T09:15:17;15.60;56.50
36214;DHT22;37652;50.400;30.628;2023-03-23T09:17:18;15.80;55.80
36214;DHT22;37652;50.400;30.628;2023-03-23T09:19:19;15.90;55.50
36214;DHT22;37652;50.400;30.628;2023-03-23T09:21:20;15.10;56.20
36214;DHT22;37652;50.400;30.628;2023-03-23T09:23:22;15.50;56.10
36214;DHT22;37652;50.400;30.628;2023-03-23T09:25:26;15.80;65.10
36214;DHT22;37652;50.400;30.628;2023-03-23T09:27:27;15.90;55.80
36214;DHT22;37652;50.400;30.628;2023-03-23T09:31:29;16.30;54.50
36214;DHT22;37652;50.400;30.628;2023-03-23T09:33:31;16.70;54.20
36214;DHT22;37652;50.400;30.628;2023-03-23T09:35:36;16.80;53.50
36214;DHT22;37652;50.400;30.628;2023-03-23T09:37:39;16.70;52.60
36214;DHT22;37652;50.400;30.628;2023-03-23T09:39:40;16.60;52.70
36214;DHT22;37652;50.400;30.628;2023-03-23T09:44:12;16.60;52.70
36214;DHT22;37652;50.400;30.628;2023-03-23T09:49:03;16.90;52.40
36214;DHT22;37652;50.400;30.628;2023-03-23T09:53:38;18.10;50.10
36214;DHT22;37652;50.400;30.628;2023-03-23T09:55:39;18.10;49.20
36214;DHT22;37652;50.400;30.628;2023-03-23T09:59:54;18.00;49.50
36214;DHT22;37652;50.400;30.628;2023-03-23T10:02:04;18.10;49.40
36214;DHT22;37652;50.400;30.628;2023-03-23T10:04:28;17.90;49.60
36214;DHT22;37652;50.400;30.628;2023-03-23T10:06:30;17.60;50.00
36214;DHT22;37652;50.400;30.628;2023-03-23T10:08:32;17.30;50.40
36214;DHT22;37652;50.400;30.628;2023-03-23T10:15:27;17.30;51.50
36214;DHT22;37652;50.400;30.628;2023-03-23T10:17:37;17.10;51.80
36214;DHT22;37652;50.400;30.628;2023-03-23T10:22:16;16.80;52.00
36214;DHT22;37652;50.400;30.628;2023-03-23T10:24:21;16.50;52.50
36214;DHT22;37652;50.400;30.628;2023-03-23T10:26:47;16.70;52.30
36214;DHT22;37652;50.400;30.628;2023-03-23T10:29:07;16.70;53.30
36214;DHT22;37652;50.400;30.628;2023-03-23T10:31:35;16.30;53.20
36214;DHT22;37652;50.400;30.628;2023-03-23T10:33:43;16.40;52.20
36214;DHT22;37652;50.400;30.628;2023-03-23T10:36:10;16.90;53.10
36214;DHT22;37652;50.400;30.628;2023-03-23T10:38:26;16.60;51.00
36214;DHT22;37652;50.400;30.628;2023-03-23T10:40:31;16.90;51.40
36214;DHT22;37652;50.400;30.628;2023-03-23T10:42:37;17.10;50.00
36214;DHT22;37652;50.400;30.628;2023-03-23T10:44:38;17.10;50.50
36214;DHT22;37652;50.400;30.628;2023-03-23T10:49:00;17.70;49.20
36214;DHT22;37652;50.400;30.628;2023-03-23T10:51:04;17.90;48.60
36214;DHT22;37652;50.400;30.628;2023-03-23T10:53:34;18.00;48.40
36214;DHT22;37652;50.400;30.628;2023-03-23T10:55:38;17.50;48.60
36214;DHT22;37652;50.400;30.628;2023-03-23T10:57:45;18.00;48.40
36214;DHT22;37652;50.400;30.628;2023-03-23T10:59:47;17.90;48.60
36214;DHT22;37652;50.400;30.628;2023-03-23T11:01:53;18.00;48.50
36214;DHT22;37652;50.400;30.628;2023-03-23T11:03:55;17.90;48.30
36214;DHT22;37652;50.400;30.628;2023-03-23T11:05:59;18.00;48.00
36214;DHT22;37652;50.400;30.628;2023-03-23T11:08:01;17.40;47.80
36214;DHT22;37652;50.400;30.628;2023-03-23T11:10:07;17.40;48.00
36214;DHT22;37652;50.400;30.628;2023-03-23T11:12:17;16.90;48.90
36214;DHT22;37652;50.400;30.628;2023-03-23T11:14:26;18.10;48.40
36214;DHT22;37652;50.400;30.628;2023-03-23T11:16:31;17.60;48.10
36214;DHT22;37652;50.400;30.628;2023-03-23T11:18:40;17.90;47.50
36214;DHT22;37652;50.400;30.628;2023-03-23T11:20:45;18.00;47.10
36214;DHT22;37652;50.400;30.628;2023-03-23T11:22:48;18.30;47.20
36214;DHT22;37652;50.400;30.628;2023-03-23T11:24:54;17.80;47.10
36214;DHT22;37652;50.400;30.628;2023-03-23T11:26:57;18.00;47.10
36214;DHT22;37652;50.400;30.628;2023-03-23T11:29:31;18.30;46.10
36214;DHT22;37652;50.400;30.628;2023-03-23T11:31:35;18.90;45.60
36214;DHT22;37652;50.400;30.628;2023-03-23T11:34:01;19.10;45.20
36214;DHT22;37652;50.400;30.628;2023-03-23T11:36:01;19.30;44.10
36214;DHT22;37652;50.400;30.628;2023-03-23T11:38:02;19.30;43.90
36214;DHT22;37652;50.400;30.628;2023-03-23T11:42:20;18.90;43.90
36214;DHT22;37652;50.400;30.628;2023-03-23T11:44:23;18.70;44.10
36214;DHT22;37652;50.400;30.628;2023-03-23T11:46:37;18.20;44.80
36214;DHT22;37652;50.400;30.628;2023-03-23T11:49:03;18.00;45.30
36214;DHT22;37652;50.400;30.628;2023-03-23T11:51:27;17.90;45.40
36214;DHT22;37652;50.400;30.628;2023-03-23T11:53:39;17.90;45.60
36214;DHT22;37652;50.400;30.628;2023-03-23T11:57:45;17.10;45.10
36214;DHT22;37652;50.400;30.628;2023-03-23T11:59:46;18.60;46.20
36214;DHT22;37652;50.400;30.628;2023-03-23T12:07:02;17.70;45.70
36214;DHT22;37652;50.400;30.628;2023-03-23T12:11:31;17.50;46.50
36214;DHT22;37652;50.400;30.628;2023-03-23T12:14:06;17.20;46.80
36214;DHT22;37652;50.400;30.628;2023-03-23T12:26:06;17.30;46.40
36214;DHT22;37652;50.400;30.628;2023-03-23T12:44:50;17.20;46.10
36214;DHT22;37652;50.400;30.628;2023-03-23T12:49:19;17.50;46.10
36214;DHT22;37652;50.400;30.628;2023-03-23T12:52:13;17.30;45.90
36214;DHT22;37652;50.400;30.628;2023-03-23T12:54:15;17.70;46.00
36214;DHT22;37652;50.400;30.628;2023-03-23T12:58:28;17.20;45.50
36214;DHT22;37652;50.400;30.628;2023-03-23T13:01:07;17.20;45.70
36214;DHT22;37652;50.400;30.628;2023-03-23T13:03:13;17.20;46.50
36214;DHT22;37652;50.400;30.628;2023-03-23T13:07:49;17.40;51.60
36214;DHT22;37652;50.400;30.628;2023-03-23T13:10:02;17.60;46.80
36214;DHT22;37652;50.400;30.628;2023-03-23T13:12:07;17.30;45.70
36214;DHT22;37652;50.400;30.628;2023-03-23T13:21:07;17.60;45.40
36214;DHT22;37652;50.400;30.628;2023-03-23T13:23:22;17.60;45.60
36214;DHT22;37652;50.400;30.628;2023-03-23T13:25:49;17.70;45.40
36214;DHT22;37652;50.400;30.628;2023-03-23T13:28:00;17.80;45.90
36214;DHT22;37652;50.400;30.628;2023-03-23T13:30:01;17.90;45.20
36214;DHT22;37652;50.400;30.628;2023-03-23T13:32:37;18.00;45.00
36214;DHT22;37652;50.400;30.628;2023-03-23T13:34:39;18.10;44.90
36214;DHT22;37652;50.400;30.628;2023-03-23T13:38:59;18.40;44.40
36214;DHT22;37652;50.400;30.628;2023-03-23T13:41:10;18.30;44.50
36214;DHT22;37652;50.400;30.628;2023-03-23T13:43:11;18.20;44.60
36214;DHT22;37652;50.400;30.628;2023-03-23T13:45:23;18.30;44.40
36214;DHT22;37652;50.400;30.628;2023-03-23T13:47:34;18.40;44.70
36214;DHT22;37652;50.400;30.628;2023-03-23T13:52:18;18.30;43.60
36214;DHT22;37652;50.400;30.628;2023-03-23T13:56:42;18.60;44.30
36214;DHT22;37652;50.400;30.628;2023-03-23T13:58:45;18.60;43.60
36214;DHT22;37652;50.400;30.628;2023-03-23T14:00:50;18.70;43.80
36214;DHT22;37652;50.400;30.628;2023-03-23T14:02:52;18.50;43.60
36214;DHT22;37652;50.400;30.628;2023-03-23T14:05:10;18.50;43.80
36214;DHT22;37652;50.400;30.628;2023-03-23T14:07:12;18.50;43.50
36214;DHT22;37652;50.400;30.628;2023-03-23T14:11:28;18.90;52.10
36214;DHT22;37652;50.400;30.628;2023-03-23T14:16:20;19.00;42.90
36214;DHT22;37652;50.400;30.628;2023-03-23T14:18:19;18.90;42.40
36214;DHT22;37652;50.400;30.628;2023-03-23T14:20:40;19.00;42.40
36214;DHT22;37652;50.400;30.628;2023-03-23T14:22:41;19.50;42.10
36214;DHT22;37652;50.400;30.628;2023-03-23T14:24:42;19.00;42.20
36214;DHT22;37652;50.400;30.628;2023-03-23T14:26:43;19.10;42.00
36214;DHT22;37652;50.400;30.628;2023-03-23T14:28:50;18.80;42.10
36214;DHT22;37652;50.400;30.628;2023-03-23T14:30:54;18.70;41.80
36214;DHT22;37652;50.400;30.628;2023-03-23T14:33:06;18.70;42.20
36214;DHT22;37652;50.400;30.628;2023-03-23T14:35:30;18.60;42.60
36214;DHT22;37652;50.400;30.628;2023-03-23T14:37:29;18.40;42.90
36214;DHT22;37652;50.400;30.628;2023-03-23T14:39:35;18.30;43.00
36214;DHT22;37652;50.400;30.628;2023-03-23T14:41:38;18.40;43.60
36214;DHT22;37652;50.400;30.628;2023-03-23T14:43:39;18.40;43.80
36214;DHT22;37652;50.400;30.628;2023-03-23T14:45:41;18.40;44.60
36214;DHT22;37652;50.400;30.628;2023-03-23T14:47:59;18.60;44.90
36214;DHT22;37652;50.400;30.628;2023-03-23T14:50:03;18.70;46.30
36214;DHT22;37652;50.400;30.628;2023-03-23T14:52:13;18.00;48.20
36214;DHT22;37652;50.400;30.628;2023-03-23T14:54:15;18.40;44.50
36214;DHT22;37652;50.400;30.628;2023-03-23T14:56:18;18.20;43.40
36214;DHT22;37652;50.400;30.628;2023-03-23T14:58:21;18.40;43.50
36214;DHT22;37652;50.400;30.628;2023-03-23T15:00:32;18.30;43.20
36214;DHT22;37652;50.400;30.628;2023-03-23T15:02:36;18.00;43.20
36214;DHT22;37652;50.400;30.628;2023-03-23T15:04:37;18.20;43.40
36214;DHT22;37652;50.400;30.628;2023-03-23T15:06:41;18.10;43.70
36214;DHT22;37652;50.400;30.628;2023-03-23T15:08:45;17.90;44.20
36214;DHT22;37652;50.400;30.628;2023-03-23T15:10:55;17.80;44.80
36214;DHT22;37652;50.400;30.628;2023-03-23T15:15:03;18.00;43.50
36214;DHT22;37652;50.400;30.628;2023-03-23T15:19:11;18.60;47.40
36214;DHT22;37652;50.400;30.628;2023-03-23T15:21:30;17.90;43.70
36214;DHT22;37652;50.400;30.628;2023-03-23T15:23:31;18.20;47.30
36214;DHT22;37652;50.400;30.628;2023-03-23T15:25:34;17.80;43.80
36214;DHT22;37652;50.400;30.628;2023-03-23T15:27:44;17.80;43.80
36214;DHT22;37652;50.400;30.628;2023-03-23T15:29:50;17.70;45.60
36214;DHT22;37652;50.400;30.628;2023-03-23T15:31:53;17.80;43.60
36214;DHT22;37652;50.400;30.628;2023-03-23T15:33:59;17.70;43.40
36214;DHT22;37652;50.400;30.628;2023-03-23T15:36:13;17.60;42.90
36214;DHT22;37652;50.400;30.628;2023-03-23T15:38:28;17.60;44.50